sensor_id;sensor_type;location;lat;lon;timestamp;temperature;humidity
55771;DHT22;41687;-33.234;-60.334;2022-09-03T00:05:37;12.50;36.80
55771;DHT22;41687;-33.234;-60.334;2022-09-03T00:08:28;12.40;35.80
55771;DHT22;41687;-33.234;-60.334;2022-09-03T00:13:58;12.30;36.40
55771;DHT22;41687;-33.234;-60.334;2022-09-03T00:16:30;12.20;37.00
55771;DHT22;41687;-33.234;-60.334;2022-09-03T00:19:02;12.10;36.80
55771;DHT22;41687;-33.234;-60.334;2022-09-03T00:21:44;12.10;36.90
55771;DHT22;41687;-33.234;-60.334;2022-09-03T00:24:15;12.10;36.10
55771;DHT22;41687;-33.234;-60.334;2022-09-03T00:26:51;12.00;36.90
55771;DHT22;41687;-33.234;-60.334;2022-09-03T00:29:43;12.00;36.50
55771;DHT22;41687;-33.234;-60.334;2022-09-03T00:35:19;11.90;36.90
55771;DHT22;41687;-33.234;-60.334;2022-09-03T00:37:52;11.80;36.70
55771;DHT22;41687;-33.234;-60.334;2022-09-03T00:43:39;11.80;35.60
55771;DHT22;41687;-33.234;-60.334;2022-09-03T00:46:37;11.70;36.60
55771;DHT22;41687;-33.234;-60.334;2022-09-03T00:49:30;11.70;36.70
55771;DHT22;41687;-33.234;-60.334;2022-09-03T00:52:07;11.60;36.30
55771;DHT22;41687;-33.234;-60.334;2022-09-03T01:00:19;11.40;36.00
55771;DHT22;41687;-33.234;-60.334;2022-09-03T01:08:42;11.30;36.90
55771;DHT22;41687;-33.234;-60.334;2022-09-03T01:33:59;10.90;37.10
55771;DHT22;41687;-33.234;-60.334;2022-09-03T01:39:36;10.80;37.60
55771;DHT22;41687;-33.234;-60.334;2022-09-03T01:50:35;10.70;38.60
55771;DHT22;41687;-33.234;-60.334;2022-09-03T02:01:15;10.70;38.80
55771;DHT22;41687;-33.234;-60.334;2022-09-03T02:03:45;10.60;38.60
55771;DHT22;41687;-33.234;-60.334;2022-09-03T02:06:13;10.60;38.80
55771;DHT22;41687;-33.234;-60.334;2022-09-03T02:08:41;10.60;38.80
55771;DHT22;41687;-33.234;-60.334;2022-09-03T02:11:09;10.50;39.10
55771;DHT22;41687;-33.234;-60.334;2022-09-03T02:13:38;10.50;38.90
55771;DHT22;41687;-33.234;-60.334;2022-09-03T02:16:20;10.40;39.10
55771;DHT22;41687;-33.234;-60.334;2022-09-03T02:18:54;10.40;38.90
55771;DHT22;41687;-33.234;-60.334;2022-09-03T02:21:24;10.30;39.70
55771;DHT22;41687;-33.234;-60.334;2022-09-03T02:23:54;10.30;39.70
55771;DHT22;41687;-33.234;-60.334;2022-09-03T02:26:23;10.20;39.30
55771;DHT22;41687;-33.234;-60.334;2022-09-03T02:28:52;10.20;39.30
55771;DHT22;41687;-33.234;-60.334;2022-09-03T02:31:20;10.10;39.40
55771;DHT22;41687;-33.234;-60.334;2022-09-03T02:33:49;10.10;39.50
55771;DHT22;41687;-33.234;-60.334;2022-09-03T02:36:24;10.10;39.60
55771;DHT22;41687;-33.234;-60.334;2022-09-03T02:38:53;10.00;39.40
55771;DHT22;41687;-33.234;-60.334;2022-09-03T02:41:20;10.00;39.70
55771;DHT22;41687;-33.234;-60.334;2022-09-03T02:46:43;10.00;39.40
55771;DHT22;41687;-33.234;-60.334;2022-09-03T02:49:11;10.00;39.30
55771;DHT22;41687;-33.234;-60.334;2022-09-03T02:51:41;9.90;39.70
55771;DHT22;41687;-33.234;-60.334;2022-09-03T02:54:12;9.90;39.80
55771;DHT22;41687;-33.234;-60.334;2022-09-03T02:56:40;9.90;40.20
55771;DHT22;41687;-33.234;-60.334;2022-09-03T02:59:08;9.80;40.30
55771;DHT22;41687;-33.234;-60.334;2022-09-03T03:01:36;9.80;40.50
55771;DHT22;41687;-33.234;-60.334;2022-09-03T03:04:04;9.80;40.40
55771;DHT22;41687;-33.234;-60.334;2022-09-03T03:06:32;9.80;40.20
55771;DHT22;41687;-33.234;-60.334;2022-09-03T03:09:00;9.80;40.40
55771;DHT22;41687;-33.234;-60.334;2022-09-03T03:11:31;9.80;40.40
55771;DHT22;41687;-33.234;-60.334;2022-09-03T03:13:59;9.70;41.50
55771;DHT22;41687;-33.234;-60.334;2022-09-03T03:16:26;9.60;41.00
55771;DHT22;41687;-33.234;-60.334;2022-09-03T03:18:56;9.60;41.40
55771;DHT22;41687;-33.234;-60.334;2022-09-03T03:21:24;9.60;42.20
55771;DHT22;41687;-33.234;-60.334;2022-09-03T03:23:52;9.60;42.30
55771;DHT22;41687;-33.234;-60.334;2022-09-03T03:26:21;9.60;42.60
55771;DHT22;41687;-33.234;-60.334;2022-09-03T03:28:54;9.50;43.30
55771;DHT22;41687;-33.234;-60.334;2022-09-03T03:31:23;9.50;42.80
55771;DHT22;41687;-33.234;-60.334;2022-09-03T03:33:53;9.50;42.60
55771;DHT22;41687;-33.234;-60.334;2022-09-03T03:36:22;9.40;42.50
55771;DHT22;41687;-33.234;-60.334;2022-09-03T03:38:54;9.40;42.50
55771;DHT22;41687;-33.234;-60.334;2022-09-03T03:41:25;9.30;42.10
55771;DHT22;41687;-33.234;-60.334;2022-09-03T03:43:55;9.30;42.90
55771;DHT22;41687;-33.234;-60.334;2022-09-03T03:46:27;9.40;42.60
55771;DHT22;41687;-33.234;-60.334;2022-09-03T03:48:55;9.40;43.00
55771;DHT22;41687;-33.234;-60.334;2022-09-03T03:51:23;9.40;43.60
55771;DHT22;41687;-33.234;-60.334;2022-09-03T03:53:54;9.30;43.80
55771;DHT22;41687;-33.234;-60.334;2022-09-03T03:56:24;9.20;44.00
55771;DHT22;41687;-33.234;-60.334;2022-09-03T03:58:53;9.20;44.10
55771;DHT22;41687;-33.234;-60.334;2022-09-03T04:01:24;9.10;43.90
55771;DHT22;41687;-33.234;-60.334;2022-09-03T04:03:55;9.00;44.00
55771;DHT22;41687;-33.234;-60.334;2022-09-03T04:06:23;9.00;44.10
55771;DHT22;41687;-33.234;-60.334;2022-09-03T04:08:51;9.00;43.50
55771;DHT22;41687;-33.234;-60.334;2022-09-03T04:11:21;9.10;43.00
55771;DHT22;41687;-33.234;-60.334;2022-09-03T04:13:50;9.10;43.30
55771;DHT22;41687;-33.234;-60.334;2022-09-03T04:16:19;9.20;43.60
55771;DHT22;41687;-33.234;-60.334;2022-09-03T04:18:49;9.10;43.50
55771;DHT22;41687;-33.234;-60.334;2022-09-03T04:21:22;9.20;44.00
55771;DHT22;41687;-33.234;-60.334;2022-09-03T04:23:51;9.10;44.30
55771;DHT22;41687;-33.234;-60.334;2022-09-03T04:26:28;9.10;44.90
55771;DHT22;41687;-33.234;-60.334;2022-09-03T04:29:03;9.00;44.70
55771;DHT22;41687;-33.234;-60.334;2022-09-03T04:31:31;9.00;45.10
55771;DHT22;41687;-33.234;-60.334;2022-09-03T04:33:59;8.90;45.00
55771;DHT22;41687;-33.234;-60.334;2022-09-03T04:36:29;8.80;45.10
55771;DHT22;41687;-33.234;-60.334;2022-09-03T04:38:59;8.70;44.40
55771;DHT22;41687;-33.234;-60.334;2022-09-03T04:41:31;8.60;44.20
55771;DHT22;41687;-33.234;-60.334;2022-09-03T04:43:58;8.50;44.60
55771;DHT22;41687;-33.234;-60.334;2022-09-03T04:46:28;8.50;44.90
55771;DHT22;41687;-33.234;-60.334;2022-09-03T04:48:59;8.60;45.50
55771;DHT22;41687;-33.234;-60.334;2022-09-03T04:51:28;8.60;45.60
55771;DHT22;41687;-33.234;-60.334;2022-09-03T04:53:58;8.60;45.30
55771;DHT22;41687;-33.234;-60.334;2022-09-03T04:56:29;8.60;45.40
55771;DHT22;41687;-33.234;-60.334;2022-09-03T04:59:03;8.40;44.90
55771;DHT22;41687;-33.234;-60.334;2022-09-03T05:01:33;8.40;45.30
55771;DHT22;41687;-33.234;-60.334;2022-09-03T05:04:01;8.30;45.20
55771;DHT22;41687;-33.234;-60.334;2022-09-03T05:06:30;8.40;45.00
55771;DHT22;41687;-33.234;-60.334;2022-09-03T05:08:58;8.40;45.10
55771;DHT22;41687;-33.234;-60.334;2022-09-03T05:11:27;8.30;44.70
55771;DHT22;41687;-33.234;-60.334;2022-09-03T05:13:58;8.30;45.10
55771;DHT22;41687;-33.234;-60.334;2022-09-03T05:16:27;8.30;45.40
55771;DHT22;41687;-33.234;-60.334;2022-09-03T05:18:58;8.30;45.10
55771;DHT22;41687;-33.234;-60.334;2022-09-03T05:21:28;8.40;45.40
55771;DHT22;41687;-33.234;-60.334;2022-09-03T05:23:55;8.30;45.60
55771;DHT22;41687;-33.234;-60.334;2022-09-03T05:26:26;8.30;45.30
55771;DHT22;41687;-33.234;-60.334;2022-09-03T05:28:56;8.30;45.70
55771;DHT22;41687;-33.234;-60.334;2022-09-03T05:31:27;8.30;45.10
55771;DHT22;41687;-33.234;-60.334;2022-09-03T05:33:58;8.20;44.70
55771;DHT22;41687;-33.234;-60.334;2022-09-03T05:36:32;8.20;44.80
55771;DHT22;41687;-33.234;-60.334;2022-09-03T05:39:01;8.20;45.10
55771;DHT22;41687;-33.234;-60.334;2022-09-03T05:41:29;8.20;45.20
55771;DHT22;41687;-33.234;-60.334;2022-09-03T05:43:58;8.20;44.60
55771;DHT22;41687;-33.234;-60.334;2022-09-03T05:46:30;8.20;44.70
55771;DHT22;41687;-33.234;-60.334;2022-09-03T05:49:04;8.10;44.30
55771;DHT22;41687;-33.234;-60.334;2022-09-03T05:51:34;8.10;44.10
55771;DHT22;41687;-33.234;-60.334;2022-09-03T05:54:02;8.10;44.70
55771;DHT22;41687;-33.234;-60.334;2022-09-03T05:56:31;8.10;44.40
55771;DHT22;41687;-33.234;-60.334;2022-09-03T06:19:47;8.00;44.90
55771;DHT22;41687;-33.234;-60.334;2022-09-03T06:22:15;8.10;44.60
55771;DHT22;41687;-33.234;-60.334;2022-09-03T06:24:43;8.00;44.50
55771;DHT22;41687;-33.234;-60.334;2022-09-03T06:27:10;7.90;44.90
55771;DHT22;41687;-33.234;-60.334;2022-09-03T06:29:38;7.80;45.30
55771;DHT22;41687;-33.234;-60.334;2022-09-03T06:32:06;7.80;45.20
55771;DHT22;41687;-33.234;-60.334;2022-09-03T06:34:33;7.90;45.30
55771;DHT22;41687;-33.234;-60.334;2022-09-03T06:37:01;7.90;45.30
55771;DHT22;41687;-33.234;-60.334;2022-09-03T06:39:29;7.80;46.00
55771;DHT22;41687;-33.234;-60.334;2022-09-03T06:41:57;7.80;45.80
55771;DHT22;41687;-33.234;-60.334;2022-09-03T06:44:33;7.80;45.10
55771;DHT22;41687;-33.234;-60.334;2022-09-03T06:47:01;7.90;44.90
55771;DHT22;41687;-33.234;-60.334;2022-09-03T06:49:29;7.90;44.60
55771;DHT22;41687;-33.234;-60.334;2022-09-03T06:51:57;7.90;44.30
55771;DHT22;41687;-33.234;-60.334;2022-09-03T06:54:26;7.80;44.20
55771;DHT22;41687;-33.234;-60.334;2022-09-03T06:56:54;7.80;44.60
55771;DHT22;41687;-33.234;-60.334;2022-09-03T06:59:22;7.80;45.30
55771;DHT22;41687;-33.234;-60.334;2022-09-03T07:01:50;7.80;45.10
55771;DHT22;41687;-33.234;-60.334;2022-09-03T07:04:17;7.70;44.80
55771;DHT22;41687;-33.234;-60.334;2022-09-03T07:06:47;7.70;45.00
55771;DHT22;41687;-33.234;-60.334;2022-09-03T07:09:15;7.70;44.50
55771;DHT22;41687;-33.234;-60.334;2022-09-03T07:11:45;7.60;44.40
55771;DHT22;41687;-33.234;-60.334;2022-09-03T07:14:13;7.60;44.70
55771;DHT22;41687;-33.234;-60.334;2022-09-03T07:16:42;7.50;44.70
55771;DHT22;41687;-33.234;-60.334;2022-09-03T07:19:10;7.50;44.70
55771;DHT22;41687;-33.234;-60.334;2022-09-03T07:21:40;7.50;44.90
55771;DHT22;41687;-33.234;-60.334;2022-09-03T07:24:09;7.50;44.80
55771;DHT22;41687;-33.234;-60.334;2022-09-03T07:26:39;7.40;45.00
55771;DHT22;41687;-33.234;-60.334;2022-09-03T07:29:10;7.30;45.30
55771;DHT22;41687;-33.234;-60.334;2022-09-03T07:31:42;7.30;45.20
55771;DHT22;41687;-33.234;-60.334;2022-09-03T07:34:11;7.30;45.30
55771;DHT22;41687;-33.234;-60.334;2022-09-03T07:36:44;7.30;45.00
55771;DHT22;41687;-33.234;-60.334;2022-09-03T07:39:14;7.30;45.10
55771;DHT22;41687;-33.234;-60.334;2022-09-03T07:41:42;7.40;45.70
55771;DHT22;41687;-33.234;-60.334;2022-09-03T07:44:16;7.30;45.10
55771;DHT22;41687;-33.234;-60.334;2022-09-03T07:46:49;7.20;44.80
55771;DHT22;41687;-33.234;-60.334;2022-09-03T07:49:16;7.10;44.70
55771;DHT22;41687;-33.234;-60.334;2022-09-03T07:51:44;7.10;45.20
55771;DHT22;41687;-33.234;-60.334;2022-09-03T07:54:17;7.10;45.00
55771;DHT22;41687;-33.234;-60.334;2022-09-03T07:56:45;7.00;45.30
55771;DHT22;41687;-33.234;-60.334;2022-09-03T07:59:13;7.00;45.80
55771;DHT22;41687;-33.234;-60.334;2022-09-03T08:01:40;7.00;46.30
55771;DHT22;41687;-33.234;-60.334;2022-09-03T08:04:09;6.90;46.10
55771;DHT22;41687;-33.234;-60.334;2022-09-03T08:06:38;6.80;45.70
55771;DHT22;41687;-33.234;-60.334;2022-09-03T08:09:07;6.70;45.80
55771;DHT22;41687;-33.234;-60.334;2022-09-03T08:11:39;6.70;46.40
55771;DHT22;41687;-33.234;-60.334;2022-09-03T08:14:09;6.70;46.10
55771;DHT22;41687;-33.234;-60.334;2022-09-03T08:16:40;6.70;46.00
55771;DHT22;41687;-33.234;-60.334;2022-09-03T08:19:09;6.70;46.00
55771;DHT22;41687;-33.234;-60.334;2022-09-03T08:21:38;6.70;46.60
55771;DHT22;41687;-33.234;-60.334;2022-09-03T08:24:10;6.60;46.50
55771;DHT22;41687;-33.234;-60.334;2022-09-03T08:26:40;6.60;46.30
55771;DHT22;41687;-33.234;-60.334;2022-09-03T08:29:09;6.60;46.40
55771;DHT22;41687;-33.234;-60.334;2022-09-03T08:31:36;6.60;46.00
55771;DHT22;41687;-33.234;-60.334;2022-09-03T08:34:06;6.60;46.00
55771;DHT22;41687;-33.234;-60.334;2022-09-03T08:36:36;6.60;45.60
55771;DHT22;41687;-33.234;-60.334;2022-09-03T08:39:07;6.50;46.10
55771;DHT22;41687;-33.234;-60.334;2022-09-03T08:41:55;6.50;46.40
55771;DHT22;41687;-33.234;-60.334;2022-09-03T08:44:29;6.50;46.80
55771;DHT22;41687;-33.234;-60.334;2022-09-03T08:47:19;6.50;47.70
55771;DHT22;41687;-33.234;-60.334;2022-09-03T08:50:24;6.50;47.70
55771;DHT22;41687;-33.234;-60.334;2022-09-03T08:53:06;6.60;48.30
55771;DHT22;41687;-33.234;-60.334;2022-09-03T08:55:51;6.50;47.40
55771;DHT22;41687;-33.234;-60.334;2022-09-03T08:58:28;6.50;46.70
55771;DHT22;41687;-33.234;-60.334;2022-09-03T09:11:59;6.20;47.20
55771;DHT22;41687;-33.234;-60.334;2022-09-03T09:22:42;6.40;48.10
55771;DHT22;41687;-33.234;-60.334;2022-09-03T09:25:23;6.40;48.40
55771;DHT22;41687;-33.234;-60.334;2022-09-03T09:28:02;6.40;48.30
55771;DHT22;41687;-33.234;-60.334;2022-09-03T09:30:31;6.40;48.00
55771;DHT22;41687;-33.234;-60.334;2022-09-03T09:32:58;6.50;47.80
55771;DHT22;41687;-33.234;-60.334;2022-09-03T09:35:27;6.50;48.10
55771;DHT22;41687;-33.234;-60.334;2022-09-03T09:37:56;6.50;48.70
55771;DHT22;41687;-33.234;-60.334;2022-09-03T09:40:32;6.50;49.10
55771;DHT22;41687;-33.234;-60.334;2022-09-03T09:43:12;6.50;48.80
55771;DHT22;41687;-33.234;-60.334;2022-09-03T09:45:44;6.50;48.50
55771;DHT22;41687;-33.234;-60.334;2022-09-03T09:48:29;6.50;48.20
55771;DHT22;41687;-33.234;-60.334;2022-09-03T09:51:24;6.50;47.90
55771;DHT22;41687;-33.234;-60.334;2022-09-03T09:54:15;6.50;48.80
55771;DHT22;41687;-33.234;-60.334;2022-09-03T09:56:56;6.40;48.10
55771;DHT22;41687;-33.234;-60.334;2022-09-03T09:59:25;6.40;48.20
55771;DHT22;41687;-33.234;-60.334;2022-09-03T10:02:08;6.40;47.90
55771;DHT22;41687;-33.234;-60.334;2022-09-03T10:04:37;6.40;47.60
55771;DHT22;41687;-33.234;-60.334;2022-09-03T10:09:58;6.30;48.40
55771;DHT22;41687;-33.234;-60.334;2022-09-03T10:12:56;6.30;48.50
55771;DHT22;41687;-33.234;-60.334;2022-09-03T10:15:44;6.20;48.30
55771;DHT22;41687;-33.234;-60.334;2022-09-03T10:18:42;6.20;47.70
55771;DHT22;41687;-33.234;-60.334;2022-09-03T10:26:49;6.30;47.90
55771;DHT22;41687;-33.234;-60.334;2022-09-03T10:29:20;6.30;47.20
55771;DHT22;41687;-33.234;-60.334;2022-09-03T10:37:40;6.40;47.70
55771;DHT22;41687;-33.234;-60.334;2022-09-03T10:51:42;6.60;47.60
55771;DHT22;41687;-33.234;-60.334;2022-09-03T10:56:53;6.80;48.20
55771;DHT22;41687;-33.234;-60.334;2022-09-03T11:02:28;7.50;47.30
55771;DHT22;41687;-33.234;-60.334;2022-09-03T11:05:21;8.70;45.30
55771;DHT22;41687;-33.234;-60.334;2022-09-03T11:08:04;10.70;42.70
55771;DHT22;41687;-33.234;-60.334;2022-09-03T11:10:37;12.80;41.10
55771;DHT22;41687;-33.234;-60.334;2022-09-03T11:15:51;16.20;38.30
55771;DHT22;41687;-33.234;-60.334;2022-09-03T11:18:28;17.50;36.10
55771;DHT22;41687;-33.234;-60.334;2022-09-03T11:20:59;17.90;35.80
55771;DHT22;41687;-33.234;-60.334;2022-09-03T11:23:33;18.30;36.60
55771;DHT22;41687;-33.234;-60.334;2022-09-03T11:26:07;18.90;36.40
55771;DHT22;41687;-33.234;-60.334;2022-09-03T11:32:00;18.90;36.40
55771;DHT22;41687;-33.234;-60.334;2022-09-03T11:34:47;18.60;36.60
55771;DHT22;41687;-33.234;-60.334;2022-09-03T11:37:24;18.40;37.80
55771;DHT22;41687;-33.234;-60.334;2022-09-03T11:40:18;18.00;37.90
55771;DHT22;41687;-33.234;-60.334;2022-09-03T11:42:47;17.70;39.10
55771;DHT22;41687;-33.234;-60.334;2022-09-03T11:47:58;17.40;39.30
55771;DHT22;41687;-33.234;-60.334;2022-09-03T11:50:33;17.40;40.10
55771;DHT22;41687;-33.234;-60.334;2022-09-03T11:58:39;17.80;40.80
55771;DHT22;41687;-33.234;-60.334;2022-09-03T12:01:11;18.00;40.70
55771;DHT22;41687;-33.234;-60.334;2022-09-03T12:03:47;18.30;40.80
55771;DHT22;41687;-33.234;-60.334;2022-09-03T12:18:02;18.50;39.20
55771;DHT22;41687;-33.234;-60.334;2022-09-03T12:21:09;18.20;39.40
55771;DHT22;41687;-33.234;-60.334;2022-09-03T12:23:44;18.60;41.00
55771;DHT22;41687;-33.234;-60.334;2022-09-03T12:26:18;18.50;39.10
55771;DHT22;41687;-33.234;-60.334;2022-09-03T12:28:54;18.50;40.70
55771;DHT22;41687;-33.234;-60.334;2022-09-03T12:31:25;18.60;40.60
55771;DHT22;41687;-33.234;-60.334;2022-09-03T12:34:01;18.80;40.00
55771;DHT22;41687;-33.234;-60.334;2022-09-03T12:36:44;18.40;39.40
55771;DHT22;41687;-33.234;-60.334;2022-09-03T12:39:26;18.60;39.30
55771;DHT22;41687;-33.234;-60.334;2022-09-03T12:42:01;18.80;39.60
55771;DHT22;41687;-33.234;-60.334;2022-09-03T12:47:14;19.70;40.90
55771;DHT22;41687;-33.234;-60.334;2022-09-03T12:49:45;20.00;40.10
55771;DHT22;41687;-33.234;-60.334;2022-09-03T12:52:34;20.40;40.30
55771;DHT22;41687;-33.234;-60.334;2022-09-03T12:55:41;20.50;39.00
55771;DHT22;41687;-33.234;-60.334;2022-09-03T13:03:29;20.90;39.90
55771;DHT22;41687;-33.234;-60.334;2022-09-03T13:06:07;21.00;39.70
55771;DHT22;41687;-33.234;-60.334;2022-09-03T13:09:00;21.30;39.50
55771;DHT22;41687;-33.234;-60.334;2022-09-03T13:11:31;21.50;39.70
55771;DHT22;41687;-33.234;-60.334;2022-09-03T13:14:11;21.60;39.90
55771;DHT22;41687;-33.234;-60.334;2022-09-03T13:25:29;21.40;38.10
55771;DHT22;41687;-33.234;-60.334;2022-09-03T13:41:30;20.90;37.50
55771;DHT22;41687;-33.234;-60.334;2022-09-03T13:49:41;21.10;38.00
55771;DHT22;41687;-33.234;-60.334;2022-09-03T13:55:21;20.10;36.40
55771;DHT22;41687;-33.234;-60.334;2022-09-03T14:01:14;19.70;38.60
55771;DHT22;41687;-33.234;-60.334;2022-09-03T14:03:52;20.10;37.10
55771;DHT22;41687;-33.234;-60.334;2022-09-03T14:06:45;19.20;35.70
55771;DHT22;41687;-33.234;-60.334;2022-09-03T14:12:18;18.80;37.10
55771;DHT22;41687;-33.234;-60.334;2022-09-03T14:15:34;19.30;37.10
55771;DHT22;41687;-33.234;-60.334;2022-09-03T14:20:55;19.30;36.00
55771;DHT22;41687;-33.234;-60.334;2022-09-03T14:26:23;19.40;36.70
55771;DHT22;41687;-33.234;-60.334;2022-09-03T14:40:45;19.80;37.40
55771;DHT22;41687;-33.234;-60.334;2022-09-03T14:46:39;19.80;37.30
55771;DHT22;41687;-33.234;-60.334;2022-09-03T15:09:21;19.70;35.90
55771;DHT22;41687;-33.234;-60.334;2022-09-03T15:12:02;19.70;34.40
55771;DHT22;41687;-33.234;-60.334;2022-09-03T15:17:42;19.50;34.70
55771;DHT22;41687;-33.234;-60.334;2022-09-03T15:26:15;19.10;36.00
55771;DHT22;41687;-33.234;-60.334;2022-09-03T15:36:47;19.30;35.20
55771;DHT22;41687;-33.234;-60.334;2022-09-03T15:39:32;19.30;36.00
55771;DHT22;41687;-33.234;-60.334;2022-09-03T15:42:30;19.50;35.60
55771;DHT22;41687;-33.234;-60.334;2022-09-03T15:47:54;19.40;34.60
55771;DHT22;41687;-33.234;-60.334;2022-09-03T15:50:30;18.90;34.40
55771;DHT22;41687;-33.234;-60.334;2022-09-03T15:53:29;18.90;34.50
55771;DHT22;41687;-33.234;-60.334;2022-09-03T15:56:37;18.90;34.90
55771;DHT22;41687;-33.234;-60.334;2022-09-03T15:59:36;18.80;34.30
55771;DHT22;41687;-33.234;-60.334;2022-09-03T16:02:14;18.80;34.50
55771;DHT22;41687;-33.234;-60.334;2022-09-03T16:05:06;18.70;35.50
55771;DHT22;41687;-33.234;-60.334;2022-09-03T16:08:02;18.70;34.70
55771;DHT22;41687;-33.234;-60.334;2022-09-03T16:16:23;18.90;37.30
55771;DHT22;41687;-33.234;-60.334;2022-09-03T16:19:04;19.10;36.20
55771;DHT22;41687;-33.234;-60.334;2022-09-03T16:21:48;19.10;35.60
55771;DHT22;41687;-33.234;-60.334;2022-09-03T16:24:22;19.10;35.20
55771;DHT22;41687;-33.234;-60.334;2022-09-03T16:27:16;19.00;35.80
55771;DHT22;41687;-33.234;-60.334;2022-09-03T16:32:55;19.10;35.30
55771;DHT22;41687;-33.234;-60.334;2022-09-03T16:35:51;19.20;35.70
55771;DHT22;41687;-33.234;-60.334;2022-09-03T16:41:00;19.40;36.40
55771;DHT22;41687;-33.234;-60.334;2022-09-03T16:43:45;19.50;35.70
55771;DHT22;41687;-33.234;-60.334;2022-09-03T17:11:45;19.80;34.00
55771;DHT22;41687;-33.234;-60.334;2022-09-03T17:14:52;19.80;32.80
55771;DHT22;41687;-33.234;-60.334;2022-09-03T17:17:31;19.80;32.70
55771;DHT22;41687;-33.234;-60.334;2022-09-03T17:25:50;19.50;32.00
55771;DHT22;41687;-33.234;-60.334;2022-09-03T17:31:36;19.60;33.10
55771;DHT22;41687;-33.234;-60.334;2022-09-03T17:43:13;19.40;31.50
55771;DHT22;41687;-33.234;-60.334;2022-09-03T17:46:07;19.40;32.40
55771;DHT22;41687;-33.234;-60.334;2022-09-03T17:48:51;19.50;31.10
55771;DHT22;41687;-33.234;-60.334;2022-09-03T17:51:40;19.60;32.40
55771;DHT22;41687;-33.234;-60.334;2022-09-03T18:05:25;19.70;31.50
55771;DHT22;41687;-33.234;-60.334;2022-09-03T18:08:07;19.70;32.30
55771;DHT22;41687;-33.234;-60.334;2022-09-03T18:10:59;19.70;32.90
55771;DHT22;41687;-33.234;-60.334;2022-09-03T18:16:37;19.70;33.10
55771;DHT22;41687;-33.234;-60.334;2022-09-03T18:19:30;19.60;31.50
55771;DHT22;41687;-33.234;-60.334;2022-09-03T18:22:01;19.60;33.50
55771;DHT22;41687;-33.234;-60.334;2022-09-03T18:24:55;19.60;33.20
55771;DHT22;41687;-33.234;-60.334;2022-09-03T18:27:55;19.60;33.10
55771;DHT22;41687;-33.234;-60.334;2022-09-03T18:30:42;19.50;32.30
55771;DHT22;41687;-33.234;-60.334;2022-09-03T18:33:28;19.50;34.00
55771;DHT22;41687;-33.234;-60.334;2022-09-03T18:36:14;19.50;33.90
55771;DHT22;41687;-33.234;-60.334;2022-09-03T18:42:26;19.50;32.40
55771;DHT22;41687;-33.234;-60.334;2022-09-03T18:48:20;19.30;32.70
55771;DHT22;41687;-33.234;-60.334;2022-09-03T18:54:25;19.30;33.10
55771;DHT22;41687;-33.234;-60.334;2022-09-03T18:57:24;19.30;33.80
55771;DHT22;41687;-33.234;-60.334;2022-09-03T19:00:11;19.30;33.10
55771;DHT22;41687;-33.234;-60.334;2022-09-03T19:09:36;19.20;34.30
55771;DHT22;41687;-33.234;-60.334;2022-09-03T19:15:36;19.00;34.20
55771;DHT22;41687;-33.234;-60.334;2022-09-03T19:22:09;19.10;33.40
55771;DHT22;41687;-33.234;-60.334;2022-09-03T19:25:05;19.10;34.10
55771;DHT22;41687;-33.234;-60.334;2022-09-03T19:47:04;18.80;33.90
55771;DHT22;41687;-33.234;-60.334;2022-09-03T19:50:20;18.80;34.80
55771;DHT22;41687;-33.234;-60.334;2022-09-03T19:53:14;18.80;34.10
55771;DHT22;41687;-33.234;-60.334;2022-09-03T19:56:14;18.60;33.60
55771;DHT22;41687;-33.234;-60.334;2022-09-03T19:59:11;18.70;34.90
55771;DHT22;41687;-33.234;-60.334;2022-09-03T20:01:57;18.60;34.80
55771;DHT22;41687;-33.234;-60.334;2022-09-03T20:04:57;18.60;35.10
55771;DHT22;41687;-33.234;-60.334;2022-09-03T20:07:45;18.60;34.90
55771;DHT22;41687;-33.234;-60.334;2022-09-03T20:10:34;18.60;35.50
55771;DHT22;41687;-33.234;-60.334;2022-09-03T20:13:12;18.60;35.40
55771;DHT22;41687;-33.234;-60.334;2022-09-03T20:32:25;18.40;34.90
55771;DHT22;41687;-33.234;-60.334;2022-09-03T20:35:07;18.30;35.50
55771;DHT22;41687;-33.234;-60.334;2022-09-03T20:37:52;18.30;35.20
55771;DHT22;41687;-33.234;-60.334;2022-09-03T20:43:43;18.20;35.30
55771;DHT22;41687;-33.234;-60.334;2022-09-03T20:49:48;18.10;36.20
55771;DHT22;41687;-33.234;-60.334;2022-09-03T20:52:27;18.10;35.60
55771;DHT22;41687;-33.234;-60.334;2022-09-03T20:55:37;18.00;35.90
55771;DHT22;41687;-33.234;-60.334;2022-09-03T21:01:07;17.90;35.70
55771;DHT22;41687;-33.234;-60.334;2022-09-03T21:03:51;17.90;36.30
55771;DHT22;41687;-33.234;-60.334;2022-09-03T21:14:48;17.70;36.50
55771;DHT22;41687;-33.234;-60.334;2022-09-03T21:20:04;17.70;36.30
55771;DHT22;41687;-33.234;-60.334;2022-09-03T21:25:19;17.60;37.20
55771;DHT22;41687;-33.234;-60.334;2022-09-03T21:28:07;17.50;36.80
55771;DHT22;41687;-33.234;-60.334;2022-09-03T21:30:39;17.50;36.90
55771;DHT22;41687;-33.234;-60.334;2022-09-03T21:33:20;17.40;37.00
55771;DHT22;41687;-33.234;-60.334;2022-09-03T21:36:13;17.40;37.20
55771;DHT22;41687;-33.234;-60.334;2022-09-03T21:38:48;17.30;36.80
55771;DHT22;41687;-33.234;-60.334;2022-09-03T21:41:57;17.30;37.20
55771;DHT22;41687;-33.234;-60.334;2022-09-03T21:44:36;17.20;36.70
55771;DHT22;41687;-33.234;-60.334;2022-09-03T21:47:18;17.20;36.90
55771;DHT22;41687;-33.234;-60.334;2022-09-03T21:49:59;17.10;37.00
55771;DHT22;41687;-33.234;-60.334;2022-09-03T21:52:42;17.10;37.70
55771;DHT22;41687;-33.234;-60.334;2022-09-03T22:00:53;17.00;39.20
55771;DHT22;41687;-33.234;-60.334;2022-09-03T22:03:22;16.90;39.50
55771;DHT22;41687;-33.234;-60.334;2022-09-03T22:06:06;16.90;39.40
55771;DHT22;41687;-33.234;-60.334;2022-09-03T22:09:06;16.90;40.10
55771;DHT22;41687;-33.234;-60.334;2022-09-03T22:11:50;16.90;40.30
55771;DHT22;41687;-33.234;-60.334;2022-09-03T22:14:22;16.80;39.90
55771;DHT22;41687;-33.234;-60.334;2022-09-03T22:16:53;16.70;40.10
55771;DHT22;41687;-33.234;-60.334;2022-09-03T22:19:25;16.70;40.10
55771;DHT22;41687;-33.234;-60.334;2022-09-03T22:21:56;16.70;39.70
55771;DHT22;41687;-33.234;-60.334;2022-09-03T22:28:05;16.50;39.10
55771;DHT22;41687;-33.234;-60.334;2022-09-03T22:31:01;16.50;39.80
55771;DHT22;41687;-33.234;-60.334;2022-09-03T22:36:48;16.50;40.00
55771;DHT22;41687;-33.234;-60.334;2022-09-03T22:39:25;16.50;39.70
55771;DHT22;41687;-33.234;-60.334;2022-09-03T22:42:21;16.40;39.70
55771;DHT22;41687;-33.234;-60.334;2022-09-03T22:48:12;16.20;39.90
55771;DHT22;41687;-33.234;-60.334;2022-09-03T22:50:56;16.10;38.20
55771;DHT22;41687;-33.234;-60.334;2022-09-03T22:56:18;15.90;37.00
55771;DHT22;41687;-33.234;-60.334;2022-09-03T22:59:03;15.90;37.30
55771;DHT22;41687;-33.234;-60.334;2022-09-03T23:07:23;15.80;36.70
55771;DHT22;41687;-33.234;-60.334;2022-09-03T23:09:56;15.70;36.80
55771;DHT22;41687;-33.234;-60.334;2022-09-03T23:15:18;15.70;37.30
55771;DHT22;41687;-33.234;-60.334;2022-09-03T23:17:58;15.70;36.90
55771;DHT22;41687;-33.234;-60.334;2022-09-03T23:20:33;15.50;37.70
55771;DHT22;41687;-33.234;-60.334;2022-09-03T23:23:16;15.40;37.40